Carlos Manuel de Cespedes Airport


Codes: MUBY/BYM
Name: Carlos Manuel de Cespedes Airport
City: Bayamo
Country: Cuba
Elevation: 203 ft.
Wikipedia:

Photos at Carlos Manuel de Cespedes Airport


   Photos courtesy of SpottingLog. You can add your own sightings and photos by signing up for a free trial today.



No photos found.

Weather at Carlos Manuel de Cespedes Airport


Time (UTC)DescriptionTempratureWindCloud coverageVisibilityPressureHumidity
21-Feb-2024 03:00Broken Clouds21°C4 mph, N71%10000m1020hPa70%
21-Feb-2024 06:00Scattered Clouds19°C0 mph, SE46%10000m1020hPa75%
21-Feb-2024 09:00Clear Sky16°C2 mph, S0%10000m1019hPa81%
21-Feb-2024 12:00Clear Sky16°C2 mph, SE0%10000m1020hPa79%
21-Feb-2024 15:00Clear Sky24°C7 mph, N0%10000m1020hPa45%
21-Feb-2024 18:00Clear Sky28°C9 mph, N0%10000m1017hPa30%
21-Feb-2024 21:00Clear Sky28°C16 mph, N0%10000m1015hPa29%
22-Feb-2024 00:00Clear Sky20°C11 mph, N0%10000m1018hPa51%
22-Feb-2024 03:00Clear Sky17°C0 mph, SW0%10000m1019hPa66%
22-Feb-2024 06:00Clear Sky16°C2 mph, S0%10000m1018hPa69%
22-Feb-2024 09:00Clear Sky16°C2 mph, S0%10000m1017hPa70%
22-Feb-2024 12:00Clear Sky16°C2 mph, S1%10000m1019hPa68%
22-Feb-2024 15:00Clear Sky24°C9 mph, NE7%10000m1019hPa41%
22-Feb-2024 18:00Clear Sky28°C9 mph, NE3%10000m1016hPa29%
22-Feb-2024 21:00Clear Sky28°C11 mph, NE0%10000m1014hPa30%
23-Feb-2024 00:00Clear Sky21°C11 mph, NE0%10000m1015hPa57%
23-Feb-2024 03:00Clear Sky18°C4 mph, SE0%10000m1016hPa75%
23-Feb-2024 06:00Clear Sky17°C4 mph, SE0%10000m1015hPa80%
23-Feb-2024 09:00Clear Sky16°C4 mph, SE0%10000m1014hPa80%
23-Feb-2024 12:00Clear Sky17°C4 mph, SE0%10000m1016hPa77%
23-Feb-2024 15:00Clear Sky26°C4 mph, E0%10000m1016hPa40%
23-Feb-2024 18:00Clear Sky31°C2 mph, NE0%10000m1013hPa26%
23-Feb-2024 21:00Clear Sky31°C4 mph, W0%10000m1011hPa26%
24-Feb-2024 00:00Clear Sky22°C7 mph, W0%10000m1014hPa61%
24-Feb-2024 03:00Clear Sky20°C2 mph, SW0%10000m1016hPa74%
24-Feb-2024 06:00Clear Sky19°C2 mph, SW0%10000m1015hPa75%
24-Feb-2024 09:00Clear Sky18°C2 mph, S1%10000m1015hPa77%
24-Feb-2024 12:00Clear Sky18°C4 mph, S2%10000m1016hPa77%
24-Feb-2024 15:00Clear Sky26°C4 mph, NW0%10000m1018hPa49%
24-Feb-2024 18:00Clear Sky32°C7 mph, NW0%10000m1014hPa29%
24-Feb-2024 21:00Clear Sky30°C13 mph, W0%10000m1014hPa39%
25-Feb-2024 00:00Clear Sky23°C9 mph, W1%10000m1016hPa58%
25-Feb-2024 03:00Clear Sky20°C4 mph, S0%10000m1018hPa73%
25-Feb-2024 06:00Clear Sky19°C2 mph, SW0%10000m1018hPa79%
25-Feb-2024 09:00Clear Sky18°C2 mph, S4%10000m1017hPa84%
25-Feb-2024 12:00Few Clouds19°C2 mph, SE12%10000m1019hPa82%
25-Feb-2024 15:00Broken Clouds25°C9 mph, NE61%10000m1020hPa62%
25-Feb-2024 18:00Light Rain25°C13 mph, NE70%10000m1019hPa60%
25-Feb-2024 21:00Overcast Clouds24°C11 mph, NE86%10000m1018hPa57%
26-Feb-2024 00:00Overcast Clouds22°C11 mph, NE92%10000m1019hPa65%